sensor_id;sensor_type;location;lat;lon;timestamp;P1;durP1;ratioP1;P2;durP2;ratioP2
5833;SDS011;2943;48.012;10.968;2022-12-18T00:02:13;67.90;;;27.80;;
5833;SDS011;2943;48.012;10.968;2022-12-18T00:04:41;58.50;;;25.87;;
5833;SDS011;2943;48.012;10.968;2022-12-18T00:07:08;61.80;;;26.90;;
5833;SDS011;2943;48.012;10.968;2022-12-18T00:09:35;59.83;;;25.73;;
5833;SDS011;2943;48.012;10.968;2022-12-18T00:12:03;56.37;;;25.10;;
5833;SDS011;2943;48.012;10.968;2022-12-18T00:14:30;65.30;;;27.50;;
5833;SDS011;2943;48.012;10.968;2022-12-18T00:16:57;62.87;;;28.47;;
5833;SDS011;2943;48.012;10.968;2022-12-18T00:19:25;71.60;;;27.67;;
5833;SDS011;2943;48.012;10.968;2022-12-18T00:21:54;64.60;;;26.80;;
5833;SDS011;2943;48.012;10.968;2022-12-18T00:24:23;68.53;;;27.07;;
5833;SDS011;2943;48.012;10.968;2022-12-18T00:26:50;65.93;;;27.77;;
5833;SDS011;2943;48.012;10.968;2022-12-18T00:29:16;63.93;;;27.63;;
5833;SDS011;2943;48.012;10.968;2022-12-18T00:31:43;61.40;;;26.20;;
5833;SDS011;2943;48.012;10.968;2022-12-18T00:34:10;58.60;;;25.83;;
5833;SDS011;2943;48.012;10.968;2022-12-18T00:36:38;67.73;;;27.27;;
5833;SDS011;2943;48.012;10.968;2022-12-18T00:39:07;56.27;;;25.93;;
5833;SDS011;2943;48.012;10.968;2022-12-18T00:41:36;60.50;;;25.47;;
5833;SDS011;2943;48.012;10.968;2022-12-18T00:44:20;67.70;;;27.97;;
5833;SDS011;2943;48.012;10.968;2022-12-18T00:46:47;65.47;;;28.00;;
5833;SDS011;2943;48.012;10.968;2022-12-18T00:49:16;61.37;;;26.83;;
5833;SDS011;2943;48.012;10.968;2022-12-18T00:51:44;68.77;;;29.47;;
5833;SDS011;2943;48.012;10.968;2022-12-18T00:54:12;58.23;;;25.57;;
5833;SDS011;2943;48.012;10.968;2022-12-18T00:56:39;60.67;;;27.40;;
5833;SDS011;2943;48.012;10.968;2022-12-18T00:59:06;57.83;;;24.47;;
5833;SDS011;2943;48.012;10.968;2022-12-18T01:01:33;67.40;;;27.03;;
5833;SDS011;2943;48.012;10.968;2022-12-18T01:04:01;60.83;;;26.40;;
5833;SDS011;2943;48.012;10.968;2022-12-18T01:06:29;55.47;;;24.10;;
5833;SDS011;2943;48.012;10.968;2022-12-18T01:08:57;64.30;;;27.57;;
5833;SDS011;2943;48.012;10.968;2022-12-18T01:11:25;58.73;;;25.87;;
5833;SDS011;2943;48.012;10.968;2022-12-18T01:13:53;59.50;;;25.33;;
5833;SDS011;2943;48.012;10.968;2022-12-18T01:16:20;64.63;;;27.17;;
5833;SDS011;2943;48.012;10.968;2022-12-18T01:18:50;58.10;;;24.57;;
5833;SDS011;2943;48.012;10.968;2022-12-18T01:21:18;59.03;;;24.33;;
5833;SDS011;2943;48.012;10.968;2022-12-18T01:23:45;46.50;;;22.73;;
5833;SDS011;2943;48.012;10.968;2022-12-18T01:26:13;49.50;;;22.60;;
5833;SDS011;2943;48.012;10.968;2022-12-18T01:28:43;57.03;;;24.90;;
5833;SDS011;2943;48.012;10.968;2022-12-18T01:31:11;55.67;;;25.30;;
5833;SDS011;2943;48.012;10.968;2022-12-18T01:33:39;51.00;;;22.40;;
5833;SDS011;2943;48.012;10.968;2022-12-18T01:36:06;48.40;;;21.10;;
5833;SDS011;2943;48.012;10.968;2022-12-18T01:38:33;44.73;;;20.97;;
5833;SDS011;2943;48.012;10.968;2022-12-18T01:41:00;52.23;;;23.40;;
5833;SDS011;2943;48.012;10.968;2022-12-18T01:46:22;56.90;;;22.10;;
5833;SDS011;2943;48.012;10.968;2022-12-18T01:48:51;51.23;;;22.23;;
5833;SDS011;2943;48.012;10.968;2022-12-18T01:51:20;51.20;;;22.33;;
5833;SDS011;2943;48.012;10.968;2022-12-18T01:53:48;54.40;;;25.20;;
5833;SDS011;2943;48.012;10.968;2022-12-18T01:56:16;56.07;;;25.47;;
5833;SDS011;2943;48.012;10.968;2022-12-18T01:58:54;58.33;;;25.47;;
5833;SDS011;2943;48.012;10.968;2022-12-18T02:01:23;57.83;;;25.27;;
5833;SDS011;2943;48.012;10.968;2022-12-18T02:03:51;58.17;;;23.70;;
5833;SDS011;2943;48.012;10.968;2022-12-18T02:06:19;58.20;;;25.50;;
5833;SDS011;2943;48.012;10.968;2022-12-18T02:08:57;53.20;;;23.90;;
5833;SDS011;2943;48.012;10.968;2022-12-18T02:11:37;47.77;;;21.70;;
5833;SDS011;2943;48.012;10.968;2022-12-18T02:14:16;58.17;;;24.10;;
5833;SDS011;2943;48.012;10.968;2022-12-18T02:16:51;58.80;;;24.53;;
5833;SDS011;2943;48.012;10.968;2022-12-18T02:19:28;59.87;;;26.20;;
5833;SDS011;2943;48.012;10.968;2022-12-18T02:22:12;62.43;;;27.97;;
5833;SDS011;2943;48.012;10.968;2022-12-18T02:24:51;59.00;;;27.13;;
5833;SDS011;2943;48.012;10.968;2022-12-18T02:27:28;56.70;;;22.87;;
5833;SDS011;2943;48.012;10.968;2022-12-18T02:29:58;52.87;;;23.17;;
5833;SDS011;2943;48.012;10.968;2022-12-18T02:32:28;60.27;;;26.73;;
5833;SDS011;2943;48.012;10.968;2022-12-18T02:34:58;59.03;;;26.90;;
5833;SDS011;2943;48.012;10.968;2022-12-18T02:37:29;61.43;;;24.70;;
5833;SDS011;2943;48.012;10.968;2022-12-18T02:39:56;63.20;;;26.80;;
5833;SDS011;2943;48.012;10.968;2022-12-18T02:42:25;50.70;;;24.57;;
5833;SDS011;2943;48.012;10.968;2022-12-18T02:44:55;56.93;;;24.33;;
5833;SDS011;2943;48.012;10.968;2022-12-18T02:47:23;56.07;;;26.27;;
5833;SDS011;2943;48.012;10.968;2022-12-18T02:49:55;51.50;;;23.00;;
5833;SDS011;2943;48.012;10.968;2022-12-18T02:52:30;59.60;;;25.23;;
5833;SDS011;2943;48.012;10.968;2022-12-18T02:55:05;55.77;;;23.13;;
5833;SDS011;2943;48.012;10.968;2022-12-18T02:57:40;56.37;;;22.67;;
5833;SDS011;2943;48.012;10.968;2022-12-18T03:00:14;55.67;;;22.33;;
5833;SDS011;2943;48.012;10.968;2022-12-18T03:02:45;54.93;;;24.00;;
5833;SDS011;2943;48.012;10.968;2022-12-18T03:05:17;54.93;;;23.57;;
5833;SDS011;2943;48.012;10.968;2022-12-18T03:07:48;54.30;;;25.23;;
5833;SDS011;2943;48.012;10.968;2022-12-18T03:10:23;58.00;;;24.67;;
5833;SDS011;2943;48.012;10.968;2022-12-18T03:12:55;58.37;;;25.07;;
5833;SDS011;2943;48.012;10.968;2022-12-18T03:15:29;51.47;;;22.00;;
5833;SDS011;2943;48.012;10.968;2022-12-18T03:18:01;61.13;;;23.77;;
5833;SDS011;2943;48.012;10.968;2022-12-18T03:20:31;52.03;;;22.63;;
5833;SDS011;2943;48.012;10.968;2022-12-18T03:23:02;59.13;;;23.60;;
5833;SDS011;2943;48.012;10.968;2022-12-18T03:25:34;52.93;;;23.60;;
5833;SDS011;2943;48.012;10.968;2022-12-18T03:28:07;52.37;;;23.53;;
5833;SDS011;2943;48.012;10.968;2022-12-18T03:30:40;56.60;;;25.43;;
5833;SDS011;2943;48.012;10.968;2022-12-18T03:33:10;56.07;;;23.97;;
5833;SDS011;2943;48.012;10.968;2022-12-18T03:35:43;52.83;;;22.37;;
5833;SDS011;2943;48.012;10.968;2022-12-18T03:38:11;56.17;;;24.30;;
5833;SDS011;2943;48.012;10.968;2022-12-18T03:40:41;56.30;;;23.70;;
5833;SDS011;2943;48.012;10.968;2022-12-18T03:43:16;57.27;;;25.97;;
5833;SDS011;2943;48.012;10.968;2022-12-18T03:45:52;60.60;;;25.07;;
5833;SDS011;2943;48.012;10.968;2022-12-18T03:48:28;51.27;;;22.73;;
5833;SDS011;2943;48.012;10.968;2022-12-18T03:51:01;59.10;;;25.63;;
5833;SDS011;2943;48.012;10.968;2022-12-18T03:53:33;60.63;;;24.83;;
5833;SDS011;2943;48.012;10.968;2022-12-18T03:56:06;56.57;;;23.50;;
5833;SDS011;2943;48.012;10.968;2022-12-18T03:58:36;62.27;;;26.67;;
5833;SDS011;2943;48.012;10.968;2022-12-18T04:01:06;53.20;;;23.67;;
5833;SDS011;2943;48.012;10.968;2022-12-18T04:03:36;57.77;;;24.10;;
5833;SDS011;2943;48.012;10.968;2022-12-18T04:06:04;56.10;;;24.37;;
5833;SDS011;2943;48.012;10.968;2022-12-18T04:08:32;60.50;;;23.17;;
5833;SDS011;2943;48.012;10.968;2022-12-18T04:11:00;63.73;;;25.97;;
5833;SDS011;2943;48.012;10.968;2022-12-18T04:13:29;62.80;;;26.10;;
5833;SDS011;2943;48.012;10.968;2022-12-18T04:15:58;66.47;;;24.90;;
5833;SDS011;2943;48.012;10.968;2022-12-18T04:18:27;61.03;;;24.23;;
5833;SDS011;2943;48.012;10.968;2022-12-18T04:20:54;58.37;;;25.43;;
5833;SDS011;2943;48.012;10.968;2022-12-18T04:23:20;59.67;;;26.87;;
5833;SDS011;2943;48.012;10.968;2022-12-18T04:25:47;59.20;;;24.40;;
5833;SDS011;2943;48.012;10.968;2022-12-18T04:28:14;58.87;;;25.70;;
5833;SDS011;2943;48.012;10.968;2022-12-18T04:30:41;58.67;;;24.73;;
5833;SDS011;2943;48.012;10.968;2022-12-18T04:33:08;56.27;;;25.20;;
5833;SDS011;2943;48.012;10.968;2022-12-18T04:35:37;60.03;;;25.23;;
5833;SDS011;2943;48.012;10.968;2022-12-18T04:38:05;64.50;;;27.07;;
5833;SDS011;2943;48.012;10.968;2022-12-18T04:40:33;51.90;;;22.60;;
5833;SDS011;2943;48.012;10.968;2022-12-18T04:43:00;57.23;;;23.40;;
5833;SDS011;2943;48.012;10.968;2022-12-18T04:45:27;53.87;;;23.07;;
5833;SDS011;2943;48.012;10.968;2022-12-18T04:47:53;57.53;;;24.17;;
5833;SDS011;2943;48.012;10.968;2022-12-18T04:50:20;53.77;;;23.83;;
5833;SDS011;2943;48.012;10.968;2022-12-18T04:52:48;59.37;;;25.30;;
5833;SDS011;2943;48.012;10.968;2022-12-18T04:55:15;51.20;;;23.13;;
5833;SDS011;2943;48.012;10.968;2022-12-18T04:57:42;61.27;;;24.67;;
5833;SDS011;2943;48.012;10.968;2022-12-18T05:00:09;58.70;;;23.43;;
5833;SDS011;2943;48.012;10.968;2022-12-18T05:02:37;57.40;;;24.80;;
5833;SDS011;2943;48.012;10.968;2022-12-18T05:05:05;59.47;;;22.23;;
5833;SDS011;2943;48.012;10.968;2022-12-18T05:07:32;56.50;;;23.70;;
5833;SDS011;2943;48.012;10.968;2022-12-18T05:10:00;55.83;;;23.17;;
5833;SDS011;2943;48.012;10.968;2022-12-18T05:12:28;54.13;;;23.47;;
5833;SDS011;2943;48.012;10.968;2022-12-18T05:14:55;49.07;;;22.33;;
5833;SDS011;2943;48.012;10.968;2022-12-18T05:17:21;55.93;;;24.80;;
5833;SDS011;2943;48.012;10.968;2022-12-18T05:19:48;52.67;;;22.10;;
5833;SDS011;2943;48.012;10.968;2022-12-18T05:22:15;61.37;;;25.77;;
5833;SDS011;2943;48.012;10.968;2022-12-18T05:24:42;57.43;;;24.17;;
5833;SDS011;2943;48.012;10.968;2022-12-18T05:27:10;54.07;;;24.20;;
5833;SDS011;2943;48.012;10.968;2022-12-18T05:29:37;50.53;;;23.37;;
5833;SDS011;2943;48.012;10.968;2022-12-18T05:32:04;58.13;;;25.83;;
5833;SDS011;2943;48.012;10.968;2022-12-18T05:34:31;47.37;;;23.27;;
5833;SDS011;2943;48.012;10.968;2022-12-18T05:36:58;50.20;;;23.00;;
5833;SDS011;2943;48.012;10.968;2022-12-18T05:39:25;46.37;;;20.97;;
5833;SDS011;2943;48.012;10.968;2022-12-18T05:41:52;49.43;;;23.47;;
5833;SDS011;2943;48.012;10.968;2022-12-18T05:44:20;50.83;;;22.10;;
5833;SDS011;2943;48.012;10.968;2022-12-18T05:46:47;48.97;;;22.13;;
5833;SDS011;2943;48.012;10.968;2022-12-18T05:49:14;48.20;;;22.87;;
5833;SDS011;2943;48.012;10.968;2022-12-18T05:51:41;55.13;;;23.50;;
5833;SDS011;2943;48.012;10.968;2022-12-18T05:54:07;59.53;;;25.57;;
5833;SDS011;2943;48.012;10.968;2022-12-18T05:56:34;55.40;;;22.50;;
5833;SDS011;2943;48.012;10.968;2022-12-18T05:59:01;56.03;;;24.23;;
5833;SDS011;2943;48.012;10.968;2022-12-18T06:01:30;54.10;;;22.93;;
5833;SDS011;2943;48.012;10.968;2022-12-18T06:03:57;53.40;;;23.10;;
5833;SDS011;2943;48.012;10.968;2022-12-18T06:06:24;48.47;;;21.13;;
5833;SDS011;2943;48.012;10.968;2022-12-18T06:08:53;50.00;;;22.93;;
5833;SDS011;2943;48.012;10.968;2022-12-18T06:11:21;47.73;;;19.97;;
5833;SDS011;2943;48.012;10.968;2022-12-18T06:13:49;48.30;;;21.40;;
5833;SDS011;2943;48.012;10.968;2022-12-18T06:16:17;56.67;;;23.40;;
5833;SDS011;2943;48.012;10.968;2022-12-18T06:18:45;50.00;;;21.70;;
5833;SDS011;2943;48.012;10.968;2022-12-18T06:21:13;49.60;;;22.27;;
5833;SDS011;2943;48.012;10.968;2022-12-18T06:23:39;56.77;;;22.83;;
5833;SDS011;2943;48.012;10.968;2022-12-18T06:26:07;55.47;;;22.77;;
5833;SDS011;2943;48.012;10.968;2022-12-18T06:28:36;53.97;;;22.00;;
5833;SDS011;2943;48.012;10.968;2022-12-18T06:31:04;49.87;;;20.57;;
5833;SDS011;2943;48.012;10.968;2022-12-18T06:33:31;52.83;;;21.10;;
5833;SDS011;2943;48.012;10.968;2022-12-18T06:36:01;53.97;;;24.03;;
5833;SDS011;2943;48.012;10.968;2022-12-18T06:38:30;58.77;;;23.87;;
5833;SDS011;2943;48.012;10.968;2022-12-18T06:40:58;54.20;;;22.17;;
5833;SDS011;2943;48.012;10.968;2022-12-18T06:43:25;55.43;;;22.80;;
5833;SDS011;2943;48.012;10.968;2022-12-18T06:45:57;53.93;;;21.97;;
5833;SDS011;2943;48.012;10.968;2022-12-18T06:48:25;50.13;;;22.30;;
5833;SDS011;2943;48.012;10.968;2022-12-18T06:50:53;56.63;;;24.30;;
5833;SDS011;2943;48.012;10.968;2022-12-18T06:53:21;53.57;;;20.67;;
5833;SDS011;2943;48.012;10.968;2022-12-18T06:55:48;53.63;;;23.37;;
5833;SDS011;2943;48.012;10.968;2022-12-18T06:58:15;55.27;;;24.77;;
5833;SDS011;2943;48.012;10.968;2022-12-18T07:00:42;56.60;;;23.43;;
5833;SDS011;2943;48.012;10.968;2022-12-18T07:03:09;65.27;;;25.47;;
5833;SDS011;2943;48.012;10.968;2022-12-18T07:05:39;66.73;;;27.80;;
5833;SDS011;2943;48.012;10.968;2022-12-18T07:08:06;107.83;;;37.03;;
5833;SDS011;2943;48.012;10.968;2022-12-18T07:10:35;78.60;;;30.77;;
5833;SDS011;2943;48.012;10.968;2022-12-18T07:13:07;89.47;;;33.13;;
5833;SDS011;2943;48.012;10.968;2022-12-18T07:15:34;67.67;;;28.23;;
5833;SDS011;2943;48.012;10.968;2022-12-18T07:18:01;48.37;;;21.73;;
5833;SDS011;2943;48.012;10.968;2022-12-18T07:20:28;62.47;;;26.50;;
5833;SDS011;2943;48.012;10.968;2022-12-18T07:22:55;60.23;;;26.93;;
5833;SDS011;2943;48.012;10.968;2022-12-18T07:25:22;57.90;;;26.10;;
5833;SDS011;2943;48.012;10.968;2022-12-18T07:27:51;68.13;;;26.10;;
5833;SDS011;2943;48.012;10.968;2022-12-18T07:30:18;62.50;;;24.57;;
5833;SDS011;2943;48.012;10.968;2022-12-18T07:32:44;64.87;;;27.23;;
5833;SDS011;2943;48.012;10.968;2022-12-18T07:35:12;62.53;;;26.20;;
5833;SDS011;2943;48.012;10.968;2022-12-18T07:37:39;60.87;;;24.30;;
5833;SDS011;2943;48.012;10.968;2022-12-18T07:40:06;53.43;;;22.60;;
5833;SDS011;2943;48.012;10.968;2022-12-18T07:42:34;57.70;;;24.37;;
5833;SDS011;2943;48.012;10.968;2022-12-18T07:45:03;64.57;;;28.40;;
5833;SDS011;2943;48.012;10.968;2022-12-18T07:47:33;61.30;;;24.73;;
5833;SDS011;2943;48.012;10.968;2022-12-18T07:50:01;57.53;;;23.90;;
5833;SDS011;2943;48.012;10.968;2022-12-18T07:52:28;55.50;;;24.20;;
5833;SDS011;2943;48.012;10.968;2022-12-18T07:54:55;51.03;;;22.83;;
5833;SDS011;2943;48.012;10.968;2022-12-18T07:57:22;48.53;;;22.17;;
5833;SDS011;2943;48.012;10.968;2022-12-18T07:59:49;62.07;;;22.47;;
5833;SDS011;2943;48.012;10.968;2022-12-18T08:02:17;46.97;;;22.13;;
5833;SDS011;2943;48.012;10.968;2022-12-18T08:04:44;46.70;;;20.37;;
5833;SDS011;2943;48.012;10.968;2022-12-18T08:07:10;46.40;;;18.90;;
5833;SDS011;2943;48.012;10.968;2022-12-18T08:09:37;43.13;;;19.97;;
5833;SDS011;2943;48.012;10.968;2022-12-18T08:12:05;52.67;;;21.70;;
5833;SDS011;2943;48.012;10.968;2022-12-18T08:14:32;49.80;;;20.60;;
5833;SDS011;2943;48.012;10.968;2022-12-18T08:16:59;43.37;;;20.70;;
5833;SDS011;2943;48.012;10.968;2022-12-18T08:19:27;56.20;;;22.30;;
5833;SDS011;2943;48.012;10.968;2022-12-18T08:21:54;60.93;;;24.83;;
5833;SDS011;2943;48.012;10.968;2022-12-18T08:24:22;60.37;;;25.83;;
5833;SDS011;2943;48.012;10.968;2022-12-18T08:26:48;50.23;;;21.80;;
5833;SDS011;2943;48.012;10.968;2022-12-18T08:29:15;49.63;;;19.70;;
5833;SDS011;2943;48.012;10.968;2022-12-18T08:31:42;45.07;;;21.00;;
5833;SDS011;2943;48.012;10.968;2022-12-18T08:34:09;49.87;;;21.93;;
5833;SDS011;2943;48.012;10.968;2022-12-18T08:36:38;47.17;;;21.87;;
5833;SDS011;2943;48.012;10.968;2022-12-18T08:39:05;51.63;;;20.67;;
5833;SDS011;2943;48.012;10.968;2022-12-18T08:41:32;59.30;;;23.50;;
5833;SDS011;2943;48.012;10.968;2022-12-18T08:43:58;55.63;;;23.90;;
5833;SDS011;2943;48.012;10.968;2022-12-18T08:46:43;50.90;;;22.43;;
5833;SDS011;2943;48.012;10.968;2022-12-18T08:49:10;54.57;;;22.50;;
5833;SDS011;2943;48.012;10.968;2022-12-18T08:51:39;50.80;;;21.03;;
5833;SDS011;2943;48.012;10.968;2022-12-18T08:54:06;54.90;;;25.70;;
5833;SDS011;2943;48.012;10.968;2022-12-18T08:56:35;53.70;;;23.47;;
5833;SDS011;2943;48.012;10.968;2022-12-18T08:59:02;59.60;;;26.40;;
5833;SDS011;2943;48.012;10.968;2022-12-18T09:01:29;48.37;;;21.43;;
5833;SDS011;2943;48.012;10.968;2022-12-18T09:03:58;53.47;;;23.27;;
5833;SDS011;2943;48.012;10.968;2022-12-18T09:06:25;59.33;;;24.30;;
5833;SDS011;2943;48.012;10.968;2022-12-18T09:08:53;51.83;;;24.67;;
5833;SDS011;2943;48.012;10.968;2022-12-18T09:11:21;45.97;;;20.47;;
5833;SDS011;2943;48.012;10.968;2022-12-18T09:13:51;50.03;;;22.27;;
5833;SDS011;2943;48.012;10.968;2022-12-18T09:16:20;46.30;;;21.50;;
5833;SDS011;2943;48.012;10.968;2022-12-18T09:18:47;41.33;;;20.10;;
5833;SDS011;2943;48.012;10.968;2022-12-18T09:21:15;49.73;;;23.20;;
5833;SDS011;2943;48.012;10.968;2022-12-18T09:23:44;47.33;;;22.17;;
5833;SDS011;2943;48.012;10.968;2022-12-18T09:26:17;48.87;;;22.73;;
5833;SDS011;2943;48.012;10.968;2022-12-18T09:28:44;41.07;;;19.20;;
5833;SDS011;2943;48.012;10.968;2022-12-18T09:31:11;36.93;;;18.33;;
5833;SDS011;2943;48.012;10.968;2022-12-18T09:33:39;40.50;;;20.37;;
5833;SDS011;2943;48.012;10.968;2022-12-18T09:36:07;50.83;;;23.00;;
5833;SDS011;2943;48.012;10.968;2022-12-18T09:38:36;52.40;;;23.27;;
5833;SDS011;2943;48.012;10.968;2022-12-18T09:41:05;52.37;;;23.93;;
5833;SDS011;2943;48.012;10.968;2022-12-18T09:43:48;54.80;;;24.47;;
5833;SDS011;2943;48.012;10.968;2022-12-18T09:46:18;56.43;;;22.27;;
5833;SDS011;2943;48.012;10.968;2022-12-18T09:48:54;43.40;;;19.40;;
5833;SDS011;2943;48.012;10.968;2022-12-18T09:51:27;35.77;;;17.80;;
5833;SDS011;2943;48.012;10.968;2022-12-18T09:53:56;40.87;;;18.87;;
5833;SDS011;2943;48.012;10.968;2022-12-18T09:56:28;40.80;;;19.77;;
5833;SDS011;2943;48.012;10.968;2022-12-18T09:58:59;45.50;;;20.10;;
5833;SDS011;2943;48.012;10.968;2022-12-18T10:01:29;43.60;;;20.20;;
5833;SDS011;2943;48.012;10.968;2022-12-18T10:03:58;43.63;;;19.90;;
5833;SDS011;2943;48.012;10.968;2022-12-18T10:06:26;40.73;;;19.43;;
5833;SDS011;2943;48.012;10.968;2022-12-18T10:09:03;41.97;;;18.70;;
5833;SDS011;2943;48.012;10.968;2022-12-18T10:11:38;41.63;;;20.17;;
5833;SDS011;2943;48.012;10.968;2022-12-18T10:14:16;42.77;;;18.67;;
5833;SDS011;2943;48.012;10.968;2022-12-18T10:16:52;40.57;;;19.93;;
5833;SDS011;2943;48.012;10.968;2022-12-18T10:19:32;34.00;;;17.07;;
5833;SDS011;2943;48.012;10.968;2022-12-18T10:22:16;42.57;;;19.40;;
5833;SDS011;2943;48.012;10.968;2022-12-18T10:24:50;46.80;;;19.63;;
5833;SDS011;2943;48.012;10.968;2022-12-18T10:27:22;43.80;;;20.90;;
5833;SDS011;2943;48.012;10.968;2022-12-18T10:29:52;42.60;;;22.47;;
5833;SDS011;2943;48.012;10.968;2022-12-18T10:32:21;49.60;;;23.37;;
5833;SDS011;2943;48.012;10.968;2022-12-18T10:34:50;38.20;;;19.97;;
5833;SDS011;2943;48.012;10.968;2022-12-18T10:37:22;43.00;;;20.03;;
5833;SDS011;2943;48.012;10.968;2022-12-18T10:42:41;44.50;;;21.87;;
5833;SDS011;2943;48.012;10.968;2022-12-18T10:45:11;45.70;;;21.13;;
5833;SDS011;2943;48.012;10.968;2022-12-18T10:47:44;45.43;;;21.10;;
5833;SDS011;2943;48.012;10.968;2022-12-18T10:50:18;45.87;;;19.73;;
5833;SDS011;2943;48.012;10.968;2022-12-18T10:52:54;40.80;;;20.37;;
5833;SDS011;2943;48.012;10.968;2022-12-18T10:55:24;36.30;;;17.20;;
5833;SDS011;2943;48.012;10.968;2022-12-18T10:58:01;35.30;;;17.80;;
5833;SDS011;2943;48.012;10.968;2022-12-18T11:00:44;40.93;;;19.50;;
5833;SDS011;2943;48.012;10.968;2022-12-18T11:06:01;41.57;;;20.40;;
5833;SDS011;2943;48.012;10.968;2022-12-18T11:08:29;42.80;;;19.53;;
5833;SDS011;2943;48.012;10.968;2022-12-18T11:10:56;42.57;;;19.30;;
5833;SDS011;2943;48.012;10.968;2022-12-18T11:13:24;41.10;;;18.40;;
5833;SDS011;2943;48.012;10.968;2022-12-18T11:15:54;37.13;;;17.67;;
5833;SDS011;2943;48.012;10.968;2022-12-18T11:18:22;36.77;;;17.63;;
5833;SDS011;2943;48.012;10.968;2022-12-18T11:20:53;45.80;;;19.10;;
5833;SDS011;2943;48.012;10.968;2022-12-18T11:23:22;42.20;;;19.10;;
5833;SDS011;2943;48.012;10.968;2022-12-18T11:25:50;38.37;;;19.00;;
5833;SDS011;2943;48.012;10.968;2022-12-18T11:28:26;41.83;;;17.50;;
5833;SDS011;2943;48.012;10.968;2022-12-18T11:31:17;46.40;;;20.93;;
5833;SDS011;2943;48.012;10.968;2022-12-18T11:33:50;46.57;;;19.83;;
5833;SDS011;2943;48.012;10.968;2022-12-18T11:36:22;45.00;;;21.20;;
5833;SDS011;2943;48.012;10.968;2022-12-18T11:38:50;42.87;;;18.83;;
5833;SDS011;2943;48.012;10.968;2022-12-18T11:41:21;52.70;;;23.13;;
5833;SDS011;2943;48.012;10.968;2022-12-18T11:44:14;45.50;;;21.00;;
5833;SDS011;2943;48.012;10.968;2022-12-18T11:46:46;56.57;;;23.97;;
5833;SDS011;2943;48.012;10.968;2022-12-18T11:49:19;46.23;;;21.30;;
5833;SDS011;2943;48.012;10.968;2022-12-18T11:51:50;48.83;;;21.37;;
5833;SDS011;2943;48.012;10.968;2022-12-18T11:54:22;39.77;;;19.07;;
5833;SDS011;2943;48.012;10.968;2022-12-18T11:56:50;44.90;;;21.57;;
5833;SDS011;2943;48.012;10.968;2022-12-18T11:59:24;54.00;;;20.90;;
5833;SDS011;2943;48.012;10.968;2022-12-18T12:02:02;49.07;;;22.77;;
5833;SDS011;2943;48.012;10.968;2022-12-18T12:04:44;41.80;;;20.27;;
5833;SDS011;2943;48.012;10.968;2022-12-18T12:07:32;44.20;;;19.00;;
5833;SDS011;2943;48.012;10.968;2022-12-18T12:10:08;48.50;;;19.83;;
5833;SDS011;2943;48.012;10.968;2022-12-18T12:12:52;44.80;;;20.53;;
5833;SDS011;2943;48.012;10.968;2022-12-18T12:15:34;48.47;;;21.37;;
5833;SDS011;2943;48.012;10.968;2022-12-18T12:18:12;42.63;;;20.60;;
5833;SDS011;2943;48.012;10.968;2022-12-18T12:20:49;41.60;;;19.10;;
5833;SDS011;2943;48.012;10.968;2022-12-18T12:23:27;44.63;;;18.20;;
5833;SDS011;2943;48.012;10.968;2022-12-18T12:26:03;40.10;;;18.90;;
5833;SDS011;2943;48.012;10.968;2022-12-18T12:28:43;45.40;;;20.20;;
5833;SDS011;2943;48.012;10.968;2022-12-18T12:31:24;34.73;;;17.13;;
5833;SDS011;2943;48.012;10.968;2022-12-18T12:34:05;38.90;;;18.80;;
5833;SDS011;2943;48.012;10.968;2022-12-18T12:36:38;49.70;;;20.00;;
5833;SDS011;2943;48.012;10.968;2022-12-18T12:39:13;45.50;;;19.97;;
5833;SDS011;2943;48.012;10.968;2022-12-18T12:41:43;44.10;;;19.60;;
5833;SDS011;2943;48.012;10.968;2022-12-18T12:44:32;44.83;;;18.90;;
5833;SDS011;2943;48.012;10.968;2022-12-18T12:47:04;45.40;;;18.00;;
5833;SDS011;2943;48.012;10.968;2022-12-18T12:49:39;46.20;;;20.87;;
5833;SDS011;2943;48.012;10.968;2022-12-18T12:52:13;35.70;;;19.60;;
5833;SDS011;2943;48.012;10.968;2022-12-18T12:54:47;42.43;;;19.13;;
5833;SDS011;2943;48.012;10.968;2022-12-18T12:57:15;44.63;;;20.00;;
5833;SDS011;2943;48.012;10.968;2022-12-18T12:59:47;37.50;;;19.53;;
5833;SDS011;2943;48.012;10.968;2022-12-18T13:02:22;45.13;;;21.63;;
5833;SDS011;2943;48.012;10.968;2022-12-18T13:04:57;44.83;;;18.33;;
5833;SDS011;2943;48.012;10.968;2022-12-18T13:07:32;45.20;;;20.27;;
5833;SDS011;2943;48.012;10.968;2022-12-18T13:12:57;43.43;;;19.23;;
5833;SDS011;2943;48.012;10.968;2022-12-18T13:15:27;41.30;;;19.33;;
5833;SDS011;2943;48.012;10.968;2022-12-18T13:20:47;46.83;;;21.87;;
5833;SDS011;2943;48.012;10.968;2022-12-18T13:28:59;42.47;;;19.07;;
5833;SDS011;2943;48.012;10.968;2022-12-18T13:34:27;36.33;;;20.67;;
5833;SDS011;2943;48.012;10.968;2022-12-18T13:40:01;42.47;;;21.00;;
5833;SDS011;2943;48.012;10.968;2022-12-18T13:42:46;38.40;;;19.03;;
5833;SDS011;2943;48.012;10.968;2022-12-18T13:45:35;39.60;;;18.23;;
5833;SDS011;2943;48.012;10.968;2022-12-18T13:48:11;41.00;;;19.50;;
5833;SDS011;2943;48.012;10.968;2022-12-18T13:50:48;47.70;;;21.00;;
5833;SDS011;2943;48.012;10.968;2022-12-18T13:53:20;40.07;;;18.80;;
5833;SDS011;2943;48.012;10.968;2022-12-18T13:55:50;39.70;;;20.30;;
5833;SDS011;2943;48.012;10.968;2022-12-18T13:58:17;46.23;;;23.47;;
5833;SDS011;2943;48.012;10.968;2022-12-18T14:00:44;39.03;;;19.50;;
5833;SDS011;2943;48.012;10.968;2022-12-18T14:03:19;49.07;;;21.40;;
5833;SDS011;2943;48.012;10.968;2022-12-18T14:05:55;52.53;;;27.98;;
5833;SDS011;2943;48.012;10.968;2022-12-18T14:08:26;45.40;;;22.30;;
5833;SDS011;2943;48.012;10.968;2022-12-18T14:10:58;55.20;;;24.33;;
5833;SDS011;2943;48.012;10.968;2022-12-18T14:13:26;41.17;;;20.60;;
5833;SDS011;2943;48.012;10.968;2022-12-18T14:15:56;47.20;;;22.87;;
5833;SDS011;2943;48.012;10.968;2022-12-18T14:18:33;46.90;;;21.90;;
5833;SDS011;2943;48.012;10.968;2022-12-18T14:21:14;67.63;;;26.40;;
5833;SDS011;2943;48.012;10.968;2022-12-18T14:23:47;50.87;;;26.60;;
5833;SDS011;2943;48.012;10.968;2022-12-18T14:26:21;47.97;;;17.13;;
5833;SDS011;2943;48.012;10.968;2022-12-18T14:28:52;55.60;;;24.63;;
5833;SDS011;2943;48.012;10.968;2022-12-18T14:31:21;49.97;;;23.30;;
5833;SDS011;2943;48.012;10.968;2022-12-18T14:33:48;42.87;;;21.17;;
5833;SDS011;2943;48.012;10.968;2022-12-18T14:36:17;45.93;;;19.73;;
5833;SDS011;2943;48.012;10.968;2022-12-18T14:38:49;40.93;;;19.73;;
5833;SDS011;2943;48.012;10.968;2022-12-18T14:41:18;46.43;;;21.60;;
5833;SDS011;2943;48.012;10.968;2022-12-18T14:43:47;42.67;;;20.37;;
5833;SDS011;2943;48.012;10.968;2022-12-18T14:46:29;51.50;;;22.23;;
5833;SDS011;2943;48.012;10.968;2022-12-18T14:49:00;41.07;;;19.67;;
5833;SDS011;2943;48.012;10.968;2022-12-18T14:51:30;64.13;;;29.80;;
5833;SDS011;2943;48.012;10.968;2022-12-18T14:54:00;59.00;;;27.00;;
5833;SDS011;2943;48.012;10.968;2022-12-18T14:56:29;55.60;;;26.70;;
5833;SDS011;2943;48.012;10.968;2022-12-18T14:58:58;51.87;;;25.80;;
5833;SDS011;2943;48.012;10.968;2022-12-18T15:01:28;55.27;;;25.20;;
5833;SDS011;2943;48.012;10.968;2022-12-18T15:03:57;52.73;;;26.23;;
5833;SDS011;2943;48.012;10.968;2022-12-18T15:06:29;52.10;;;25.40;;
5833;SDS011;2943;48.012;10.968;2022-12-18T15:09:00;45.07;;;21.80;;
5833;SDS011;2943;48.012;10.968;2022-12-18T15:11:35;53.00;;;23.80;;
5833;SDS011;2943;48.012;10.968;2022-12-18T15:14:21;48.67;;;22.67;;
5833;SDS011;2943;48.012;10.968;2022-12-18T15:17:04;52.47;;;23.60;;
5833;SDS011;2943;48.012;10.968;2022-12-18T15:19:40;45.63;;;22.03;;